Time;durP1;ratioP1;P1;durP2;ratioP2;P2;SDS_P1;SDS_P2;PMS_P1;PMS_P2;Temp;Humidity;BMP_temperature;BMP_pressure;BME280_temperature;BME280_humidity;BME280_pressure;Samples;Min_cycle;Max_cycle;Signal;HPM_P1;HPM_P2
2023/03/27 00:00:19;;;;;;;;;;;19.50;84.30;;;;;;5133926;28;19961;-51
2023/03/27 00:02:48;;;;;;;;;;;19.40;84.50;;;;;;5114177;28;19947;-50
2023/03/27 00:05:19;;;;;;;;;;;19.40;84.70;;;;;;5113926;28;19961;-50
2023/03/27 00:07:50;;;;;;;;;;;19.40;84.70;;;;;;5114344;28;20274;-50
2023/03/27 00:10:15;;;;;;;;;;;19.50;84.70;;;;;;5130453;28;19919;-50
2023/03/27 00:12:43;;;;;;;;;;;19.60;84.60;;;;;;5134778;28;19907;-55
2023/03/27 00:15:14;;;;;;;;;;;19.80;84.00;;;;;;5134659;28;20059;-54
2023/03/27 00:17:40;;;;;;;;;;;20.00;83.40;;;;;;5134409;28;20491;-52
2023/03/27 00:20:06;;;;;;;;;;;20.20;82.90;;;;;;5134235;28;20002;-53
2023/03/27 00:22:31;;;;;;;;;;;20.20;82.60;;;;;;5134714;28;20346;-54
2023/03/27 00:24:56;;;;;;;;;;;20.20;82.60;;;;;;5134612;28;20005;-51
2023/03/27 00:27:23;;;;;;;;;;;20.20;82.60;;;;;;5134623;28;19912;-52
2023/03/27 00:29:49;;;;;;;;;;;20.10;82.80;;;;;;5134035;28;19911;-50
2023/03/27 00:32:14;;;;;;;;;;;20.10;82.90;;;;;;5134207;28;19999;-53
2023/03/27 00:34:40;;;;;;;;;;;20.00;83.10;;;;;;5134267;28;19915;-51
2023/03/27 00:37:06;;;;;;;;;;;19.90;83.20;;;;;;5134464;28;19911;-54
2023/03/27 00:39:31;;;;;;;;;;;19.90;79.80;;;;;;5133286;28;20285;-49
2023/03/27 00:41:57;;;;;;;;;;;19.80;79.70;;;;;;5130318;28;19927;-51
2023/03/27 00:44:33;;;;;;;;;;;19.70;82.60;;;;;;5134099;28;19943;-53
2023/03/27 00:47:01;;;;;;;;;;;19.70;83.20;;;;;;5136655;27;19952;-52
2023/03/27 00:49:29;;;;;;;;;;;19.60;83.50;;;;;;5145468;27;19918;-51
2023/03/27 00:51:57;;;;;;;;;;;19.60;83.70;;;;;;5140327;27;19917;-49
2023/03/27 00:54:28;;;;;;;;;;;19.50;83.90;;;;;;5119728;27;19907;-52
2023/03/27 00:56:56;;;;;;;;;;;19.50;84.00;;;;;;5137690;27;20426;-50
2023/03/27 00:59:26;;;;;;;;;;;19.50;84.10;;;;;;5137596;27;20345;-52
2023/03/27 01:01:52;;;;;;;;;;;19.40;84.10;;;;;;5137165;27;20378;-52
2023/03/27 01:04:20;;;;;;;;;;;19.40;84.20;;;;;;5137432;27;19907;-54
2023/03/27 01:06:47;;;;;;;;;;;19.40;84.20;;;;;;5143958;27;19915;-52
2023/03/27 01:09:12;;;;;;;;;;;19.50;84.10;;;;;;5135599;27;19914;-51
2023/03/27 01:11:38;;;;;;;;;;;19.60;83.90;;;;;;5138662;27;19990;-51
2023/03/27 01:14:03;;;;;;;;;;;19.80;83.60;;;;;;5137612;27;20006;-51
2023/03/27 01:16:36;;;;;;;;;;;20.10;83.00;;;;;;5135995;27;20243;-53
2023/03/27 01:19:15;;;;;;;;;;;20.20;82.50;;;;;;5136182;27;19959;-52
2023/03/27 01:21:51;;;;;;;;;;;20.30;82.30;;;;;;5136846;27;19918;-53
2023/03/27 01:24:36;;;;;;;;;;;20.20;82.30;;;;;;5135995;27;19998;-54
2023/03/27 01:27:15;;;;;;;;;;;20.20;82.90;;;;;;5136951;27;19924;-54
2023/03/27 01:29:47;;;;;;;;;;;20.20;82.60;;;;;;5126827;27;19911;-50
2023/03/27 01:32:24;;;;;;;;;;;20.10;82.70;;;;;;5133878;27;19995;-50
2023/03/27 01:35:02;;;;;;;;;;;20.00;82.90;;;;;;5136408;27;19914;-53
2023/03/27 01:37:46;;;;;;;;;;;19.90;83.10;;;;;;5136842;27;19976;-53
2023/03/27 01:40:21;;;;;;;;;;;19.90;83.30;;;;;;5136033;27;19968;-53
2023/03/27 01:42:46;;;;;;;;;;;19.80;83.50;;;;;;5111987;28;20282;-49
2023/03/27 01:45:12;;;;;;;;;;;19.70;83.70;;;;;;5129893;27;19914;-50
2023/03/27 01:47:43;;;;;;;;;;;19.70;83.80;;;;;;5136671;27;20262;-52
2023/03/27 01:50:14;;;;;;;;;;;19.60;84.00;;;;;;5140400;27;19911;-51
2023/03/27 01:52:41;;;;;;;;;;;19.60;84.10;;;;;;5129429;27;20426;-51
2023/03/27 01:55:12;;;;;;;;;;;19.50;84.20;;;;;;5136834;27;19963;-53
2023/03/27 01:57:48;;;;;;;;;;;19.50;84.40;;;;;;5146856;27;19931;-50
2023/03/27 02:00:20;;;;;;;;;;;19.50;84.50;;;;;;5142023;27;19957;-52
2023/03/27 02:02:49;;;;;;;;;;;19.40;84.50;;;;;;5157494;27;19907;-48
2023/03/27 02:05:21;;;;;;;;;;;19.40;84.50;;;;;;5144065;27;19903;-49
2023/03/27 02:07:50;;;;;;;;;;;19.40;84.50;;;;;;5136214;27;19911;-49
2023/03/27 02:10:18;;;;;;;;;;;19.40;84.50;;;;;;5136194;27;19904;-50
2023/03/27 02:12:54;;;;;;;;;;;19.60;84.30;;;;;;5136528;27;19910;-51
2023/03/27 02:15:21;;;;;;;;;;;19.80;83.80;;;;;;5131396;27;19934;-53
2023/03/27 02:18:03;;;;;;;;;;;20.00;83.20;;;;;;5132899;27;19926;-51
2023/03/27 02:20:29;;;;;;;;;;;20.10;83.00;;;;;;5118006;27;19920;-53
2023/03/27 02:22:59;;;;;;;;;;;20.10;82.80;;;;;;5134924;27;19907;-51
2023/03/27 02:25:34;;;;;;;;;;;20.10;82.80;;;;;;5156632;27;19918;-52
2023/03/27 02:28:19;;;;;;;;;;;20.10;82.90;;;;;;5154533;27;20474;-50
2023/03/27 02:31:00;;;;;;;;;;;20.00;83.00;;;;;;5137498;27;19907;-51
2023/03/27 02:33:32;;;;;;;;;;;19.90;83.00;;;;;;5131623;27;20285;-50
2023/03/27 02:36:15;;;;;;;;;;;19.90;83.30;;;;;;5133949;27;19921;-50
2023/03/27 02:38:51;;;;;;;;;;;19.80;83.50;;;;;;5133565;27;20381;-51
2023/03/27 02:41:16;;;;;;;;;;;19.80;83.60;;;;;;5133762;27;19943;-52
2023/03/27 02:43:51;;;;;;;;;;;19.70;83.80;;;;;;5133307;27;19911;-52
2023/03/27 02:46:21;;;;;;;;;;;19.70;84.00;;;;;;5134296;27;19914;-53
2023/03/27 02:48:48;;;;;;;;;;;19.60;84.20;;;;;;5135750;27;19953;-50
2023/03/27 02:51:25;;;;;;;;;;;19.50;84.10;;;;;;5135810;27;20311;-51
2023/03/27 02:53:59;;;;;;;;;;;19.50;84.30;;;;;;5135157;27;19912;-53
2023/03/27 02:56:27;;;;;;;;;;;19.50;84.30;;;;;;5135279;27;19919;-52
2023/03/27 02:58:52;;;;;;;;;;;19.50;84.50;;;;;;5135293;27;19912;-52
2023/03/27 03:01:19;;;;;;;;;;;19.40;84.50;;;;;;5135592;27;20350;-53
2023/03/27 03:03:52;;;;;;;;;;;19.40;84.50;;;;;;5133449;27;19965;-50
2023/03/27 03:06:19;;;;;;;;;;;19.40;84.50;;;;;;5129393;27;19911;-48
2023/03/27 03:08:45;;;;;;;;;;;19.40;84.50;;;;;;5134841;27;19914;-52
2023/03/27 03:11:12;;;;;;;;;;;19.60;84.30;;;;;;5135360;27;19911;-52
2023/03/27 03:13:37;;;;;;;;;;;19.70;83.90;;;;;;5134075;27;20266;-51
2023/03/27 03:16:03;;;;;;;;;;;20.00;83.30;;;;;;5135336;27;19915;-51
2023/03/27 03:18:29;;;;;;;;;;;20.20;82.70;;;;;;5135725;27;19911;-53
2023/03/27 03:20:54;;;;;;;;;;;20.30;82.20;;;;;;5135638;27;19954;-51
2023/03/27 03:23:21;;;;;;;;;;;20.40;81.90;;;;;;5134063;27;20018;-51
2023/03/27 03:25:49;;;;;;;;;;;20.40;81.90;;;;;;5135170;27;19908;-52
2023/03/27 03:28:17;;;;;;;;;;;20.30;81.90;;;;;;5135344;27;19957;-48
2023/03/27 03:30:45;;;;;;;;;;;20.30;82.00;;;;;;5135161;27;19908;-52
2023/03/27 03:33:13;;;;;;;;;;;20.20;82.20;;;;;;5135462;27;19995;-51
2023/03/27 03:35:38;;;;;;;;;;;20.10;82.50;;;;;;5134045;27;20339;-54
2023/03/27 03:38:05;;;;;;;;;;;20.10;82.60;;;;;;5134721;27;19950;-53
2023/03/27 03:40:30;;;;;;;;;;;20.00;82.70;;;;;;5135125;28;19957;-49
2023/03/27 03:42:56;;;;;;;;;;;19.90;83.00;;;;;;5135143;28;19908;-51
2023/03/27 03:45:21;;;;;;;;;;;19.80;83.10;;;;;;5133775;28;19964;-51
2023/03/27 03:47:47;;;;;;;;;;;19.80;83.30;;;;;;5134510;28;19914;-50
2023/03/27 03:50:12;;;;;;;;;;;19.70;83.60;;;;;;5134903;28;19907;-52
2023/03/27 03:52:38;;;;;;;;;;;19.60;83.70;;;;;;5134515;28;20331;-50
2023/03/27 03:55:04;;;;;;;;;;;19.60;83.80;;;;;;5133709;28;19912;-52
2023/03/27 03:57:30;;;;;;;;;;;19.50;83.90;;;;;;5134602;28;20285;-54
2023/03/27 03:59:57;;;;;;;;;;;19.50;84.00;;;;;;5134637;28;19908;-53
2023/03/27 04:02:29;;;;;;;;;;;19.50;84.10;;;;;;5133499;28;20052;-52
2023/03/27 04:04:56;;;;;;;;;;;19.50;84.70;;;;;;5134877;28;20005;-51
2023/03/27 04:07:22;;;;;;;;;;;19.50;84.00;;;;;;5134716;28;19955;-53
2023/03/27 04:09:49;;;;;;;;;;;19.70;83.90;;;;;;5134641;28;19915;-53
2023/03/27 04:12:14;;;;;;;;;;;19.80;83.40;;;;;;5134643;28;19907;-54
2023/03/27 04:14:41;;;;;;;;;;;20.00;82.90;;;;;;5133781;28;19916;-51
2023/03/27 04:17:06;;;;;;;;;;;20.10;82.60;;;;;;5134315;28;19911;-54
2023/03/27 04:19:32;;;;;;;;;;;20.10;82.50;;;;;;5134435;28;19919;-55
2023/03/27 04:22:01;;;;;;;;;;;20.10;82.50;;;;;;5137222;27;19966;-51
2023/03/27 04:24:29;;;;;;;;;;;20.00;82.50;;;;;;5137646;27;19964;-54
2023/03/27 04:26:57;;;;;;;;;;;20.00;82.60;;;;;;5137454;27;20006;-50
2023/03/27 04:29:22;;;;;;;;;;;20.00;82.90;;;;;;5138135;27;20027;-51
2023/03/27 04:31:48;;;;;;;;;;;19.90;82.90;;;;;;5138044;27;19907;-53
2023/03/27 04:34:13;;;;;;;;;;;19.90;83.20;;;;;;5118813;27;19929;-52
2023/03/27 04:36:39;;;;;;;;;;;19.80;83.40;;;;;;5138134;27;20016;-52
2023/03/27 04:39:05;;;;;;;;;;;19.70;83.50;;;;;;5138013;27;19911;-50
2023/03/27 04:41:31;;;;;;;;;;;19.70;83.70;;;;;;5137921;27;19930;-50
2023/03/27 04:43:56;;;;;;;;;;;19.60;83.70;;;;;;5137092;27;19914;-52
2023/03/27 04:46:22;;;;;;;;;;;19.60;83.90;;;;;;5138038;27;19951;-52
2023/03/27 04:48:49;;;;;;;;;;;19.50;84.00;;;;;;5137261;27;20404;-54
2023/03/27 04:51:15;;;;;;;;;;;19.50;84.20;;;;;;5137535;27;19992;-48
2023/03/27 04:53:41;;;;;;;;;;;19.40;84.40;;;;;;5137859;27;19911;-54
2023/03/27 04:56:08;;;;;;;;;;;19.40;84.50;;;;;;5136612;27;19915;-52
2023/03/27 04:58:33;;;;;;;;;;;19.40;84.50;;;;;;5137812;27;19918;-52
2023/03/27 05:01:01;;;;;;;;;;;19.40;84.50;;;;;;5137254;27;20234;-53
2023/03/27 05:03:26;;;;;;;;;;;19.40;85.00;;;;;;5136202;27;19917;-54
2023/03/27 05:05:52;;;;;;;;;;;19.50;84.50;;;;;;5137280;27;20006;-53
2023/03/27 05:08:18;;;;;;;;;;;19.50;84.20;;;;;;5137326;27;19933;-53
2023/03/27 05:10:44;;;;;;;;;;;19.80;84.00;;;;;;5137450;27;19914;-53
2023/03/27 05:13:10;;;;;;;;;;;20.00;83.40;;;;;;5136668;27;19919;-53
2023/03/27 05:15:37;;;;;;;;;;;20.10;83.30;;;;;;5137430;27;20258;-52
2023/03/27 05:18:05;;;;;;;;;;;20.20;82.60;;;;;;5119107;27;19919;-55
2023/03/27 05:20:31;;;;;;;;;;;20.20;82.50;;;;;;5137363;27;20295;-54
2023/03/27 05:22:57;;;;;;;;;;;20.20;82.50;;;;;;5136465;27;20077;-54
2023/03/27 05:25:23;;;;;;;;;;;20.10;82.60;;;;;;5137179;27;19908;-55
2023/03/27 05:27:49;;;;;;;;;;;20.10;82.60;;;;;;5136377;27;19969;-53
2023/03/27 05:30:17;;;;;;;;;;;20.00;82.80;;;;;;5134336;27;20448;-50
2023/03/27 05:32:50;;;;;;;;;;;19.90;83.00;;;;;;5136208;27;20004;-52
2023/03/27 05:35:17;;;;;;;;;;;19.90;83.20;;;;;;5112453;27;19961;-52
2023/03/27 05:37:49;;;;;;;;;;;19.80;83.60;;;;;;5135303;27;19931;-51
2023/03/27 05:40:16;;;;;;;;;;;19.80;83.60;;;;;;5135908;27;19918;-53
2023/03/27 05:42:44;;;;;;;;;;;19.70;83.60;;;;;;5135783;27;19937;-50
2023/03/27 05:45:11;;;;;;;;;;;19.70;83.60;;;;;;5132259;27;19926;-51
2023/03/27 05:47:50;;;;;;;;;;;19.70;83.60;;;;;;5136488;27;19912;-51
2023/03/27 05:50:16;;;;;;;;;;;19.60;83.30;;;;;;5134606;27;19954;-52
2023/03/27 05:52:42;;;;;;;;;;;19.50;83.70;;;;;;5134900;27;20419;-52
2023/03/27 05:55:09;;;;;;;;;;;19.50;84.20;;;;;;5132612;27;20016;-53
2023/03/27 05:57:38;;;;;;;;;;;19.50;81.70;;;;;;5122551;27;19911;-50
2023/03/27 06:00:12;;;;;;;;;;;19.50;84.00;;;;;;5115237;28;19911;-52
2023/03/27 06:02:39;;;;;;;;;;;19.40;84.40;;;;;;5122689;27;19942;-50
2023/03/27 06:05:15;;;;;;;;;;;19.30;84.40;;;;;;5135750;27;20297;-53
2023/03/27 06:07:41;;;;;;;;;;;19.40;84.50;;;;;;5136083;27;19934;-53
2023/03/27 06:10:07;;;;;;;;;;;19.40;84.50;;;;;;5135936;27;19953;-52
2023/03/27 06:12:35;;;;;;;;;;;19.60;84.20;;;;;;5116144;27;20324;-55
2023/03/27 06:15:01;;;;;;;;;;;19.80;83.50;;;;;;5135664;27;19922;-51
2023/03/27 06:17:26;;;;;;;;;;;20.00;82.70;;;;;;5135670;27;19915;-50
2023/03/27 06:19:52;;;;;;;;;;;20.30;82.20;;;;;;5136072;27;20345;-54
2023/03/27 06:22:17;;;;;;;;;;;20.40;81.70;;;;;;5135825;27;19908;-53
2023/03/27 06:24:43;;;;;;;;;;;20.50;81.50;;;;;;5132408;27;20006;-50
2023/03/27 06:27:09;;;;;;;;;;;20.40;81.40;;;;;;5118140;27;19997;-53
2023/03/27 06:29:36;;;;;;;;;;;20.40;81.30;;;;;;5133900;27;19912;-53
2023/03/27 06:32:01;;;;;;;;;;;20.30;81.70;;;;;;5135916;27;19943;-49
2023/03/27 06:34:27;;;;;;;;;;;20.20;81.90;;;;;;5132555;27;20447;-52
2023/03/27 06:36:52;;;;;;;;;;;20.10;82.20;;;;;;5131038;27;20204;-51
2023/03/27 06:39:18;;;;;;;;;;;20.00;82.50;;;;;;5135631;27;20347;-52
2023/03/27 06:41:43;;;;;;;;;;;19.90;82.60;;;;;;5134097;27;20281;-50
2023/03/27 06:44:08;;;;;;;;;;;19.80;82.80;;;;;;5131009;27;19911;-55
2023/03/27 06:46:34;;;;;;;;;;;19.80;82.80;;;;;;5131395;27;19916;-50
2023/03/27 06:49:00;;;;;;;;;;;19.70;83.20;;;;;;5135095;27;20335;-50
2023/03/27 06:51:25;;;;;;;;;;;19.60;83.40;;;;;;5147635;27;20365;-48
2023/03/27 06:53:52;;;;;;;;;;;19.50;83.70;;;;;;5147541;27;19914;-47
2023/03/27 06:56:17;;;;;;;;;;;19.50;84.00;;;;;;5130356;27;19933;-46
2023/03/27 06:58:43;;;;;;;;;;;19.50;84.20;;;;;;5134024;27;19915;-51
2023/03/27 07:01:08;;;;;;;;;;;19.50;84.30;;;;;;5133922;27;19907;-48
2023/03/27 07:03:34;;;;;;;;;;;19.50;84.10;;;;;;5140201;27;19911;-52
2023/03/27 07:05:59;;;;;;;;;;;19.60;84.10;;;;;;5137535;27;20010;-49
2023/03/27 07:08:25;;;;;;;;;;;19.70;83.90;;;;;;5141160;27;19908;-49
2023/03/27 07:10:54;;;;;;;;;;;19.80;83.50;;;;;;5132388;27;19923;-48
2023/03/27 07:13:19;;;;;;;;;;;19.90;83.00;;;;;;5132199;27;20002;-49
2023/03/27 07:15:45;;;;;;;;;;;20.00;83.10;;;;;;5132068;27;20287;-50
2023/03/27 07:18:10;;;;;;;;;;;20.00;83.10;;;;;;5131255;27;19926;-46
2023/03/27 07:20:36;;;;;;;;;;;19.90;83.10;;;;;;5136911;27;20014;-50
2023/03/27 07:23:02;;;;;;;;;;;19.90;83.20;;;;;;5128985;27;20377;-48
2023/03/27 07:25:35;;;;;;;;;;;19.90;83.40;;;;;;5135151;27;19933;-47
2023/03/27 07:28:05;;;;;;;;;;;19.80;83.50;;;;;;5132028;27;19946;-45
2023/03/27 07:30:31;;;;;;;;;;;19.80;83.70;;;;;;5115522;27;20307;-45
2023/03/27 07:32:57;;;;;;;;;;;19.70;83.90;;;;;;5133127;27;19912;-45
2023/03/27 07:35:23;;;;;;;;;;;19.70;84.00;;;;;;5134804;27;19908;-44
2023/03/27 07:37:49;;;;;;;;;;;19.60;84.30;;;;;;5132935;27;20377;-44
2023/03/27 07:40:20;;;;;;;;;;;19.50;84.50;;;;;;5133907;27;19965;-45
2023/03/27 07:42:47;;;;;;;;;;;19.50;84.50;;;;;;5133661;28;19919;-44
2023/03/27 07:45:13;;;;;;;;;;;19.50;84.90;;;;;;5133645;28;19911;-44
2023/03/27 07:47:42;;;;;;;;;;;19.40;84.90;;;;;;5134855;28;19933;-44
2023/03/27 07:50:10;;;;;;;;;;;19.40;85.00;;;;;;5133866;28;20026;-44
2023/03/27 07:52:36;;;;;;;;;;;19.40;85.10;;;;;;5132451;28;20002;-45
2023/03/27 07:55:02;;;;;;;;;;;19.30;85.20;;;;;;5143290;27;19953;-46
2023/03/27 07:57:28;;;;;;;;;;;19.40;85.20;;;;;;5148306;27;19915;-45
2023/03/27 07:59:55;;;;;;;;;;;19.50;85.10;;;;;;5138017;27;20319;-47
2023/03/27 08:02:20;;;;;;;;;;;19.60;84.90;;;;;;5137269;27;19967;-47
2023/03/27 08:04:46;;;;;;;;;;;19.70;84.40;;;;;;5136618;27;20377;-48
2023/03/27 08:07:11;;;;;;;;;;;19.90;84.00;;;;;;5138168;27;19915;-49
2023/03/27 08:09:37;;;;;;;;;;;20.00;83.70;;;;;;5137848;27;20006;-47
2023/03/27 08:12:06;;;;;;;;;;;20.10;83.60;;;;;;5120520;27;19908;-46
2023/03/27 08:14:31;;;;;;;;;;;20.10;83.50;;;;;;5134468;27;19963;-46
2023/03/27 08:16:57;;;;;;;;;;;20.00;83.50;;;;;;5136648;27;19998;-48
2023/03/27 08:19:22;;;;;;;;;;;19.90;83.60;;;;;;5121241;27;19916;-45
2023/03/27 08:21:48;;;;;;;;;;;19.90;83.80;;;;;;5118219;28;19908;-45
2023/03/27 08:24:14;;;;;;;;;;;19.80;83.90;;;;;;5136882;27;20316;-46
2023/03/27 08:26:40;;;;;;;;;;;19.80;84.10;;;;;;5136029;27;19915;-47
2023/03/27 08:29:06;;;;;;;;;;;19.70;84.30;;;;;;5118879;27;19916;-45
2023/03/27 08:31:32;;;;;;;;;;;19.70;84.50;;;;;;5134059;27;19923;-44
2023/03/27 08:33:57;;;;;;;;;;;19.60;84.60;;;;;;5138056;27;20316;-44
2023/03/27 08:36:23;;;;;;;;;;;19.60;84.70;;;;;;5137129;27;19919;-45
2023/03/27 08:38:48;;;;;;;;;;;19.50;84.90;;;;;;5118477;27;20289;-44
2023/03/27 08:41:26;;;;;;;;;;;19.50;85.00;;;;;;5136804;27;19923;-45
2023/03/27 08:43:52;;;;;;;;;;;19.50;85.10;;;;;;5137084;27;19911;-44
2023/03/27 08:46:30;;;;;;;;;;;19.50;85.10;;;;;;5136543;27;19911;-48
2023/03/27 08:49:08;;;;;;;;;;;19.50;85.20;;;;;;5136860;27;19918;-47
2023/03/27 08:51:44;;;;;;;;;;;19.50;85.10;;;;;;5123054;27;19912;-45
2023/03/27 08:54:12;;;;;;;;;;;19.60;85.00;;;;;;5136583;27;20399;-45
2023/03/27 08:56:38;;;;;;;;;;;19.70;84.80;;;;;;5158790;27;19994;-47
2023/03/27 08:59:09;;;;;;;;;;;19.80;84.40;;;;;;5139358;27;19973;-49
2023/03/27 09:01:35;;;;;;;;;;;20.00;84.00;;;;;;5135890;27;20285;-47
2023/03/27 09:04:16;;;;;;;;;;;20.10;83.70;;;;;;5136621;27;19915;-45
2023/03/27 09:06:49;;;;;;;;;;;20.10;83.40;;;;;;5136169;27;19934;-47
2023/03/27 09:09:27;;;;;;;;;;;20.10;83.40;;;;;;5133930;27;20506;-60
2023/03/27 09:11:58;;;;;;;;;;;20.10;82.80;;;;;;5135179;27;19912;-57
2023/03/27 09:14:39;;;;;;;;;;;20.10;83.20;;;;;;5135703;27;19912;-58
2023/03/27 09:17:14;;;;;;;;;;;20.10;83.00;;;;;;5134924;27;19915;-58
2023/03/27 09:19:43;;;;;;;;;;;20.10;83.30;;;;;;5118189;27;20054;-56
2023/03/27 09:22:12;;;;;;;;;;;20.10;83.20;;;;;;5136523;27;19918;-57
2023/03/27 09:24:39;;;;;;;;;;;20.20;83.80;;;;;;5137549;27;20060;-55
2023/03/27 09:27:20;;;;;;;;;;;20.20;83.20;;;;;;5136485;27;19918;-55
2023/03/27 09:29:51;;;;;;;;;;;20.20;83.20;;;;;;5136490;27;20361;-56
2023/03/27 09:32:16;;;;;;;;;;;20.30;83.00;;;;;;5116200;27;19911;-54
2023/03/27 09:34:42;;;;;;;;;;;20.30;83.00;;;;;;5118584;27;19915;-54
2023/03/27 09:37:13;;;;;;;;;;;20.40;83.00;;;;;;5136705;27;20010;-58
2023/03/27 09:39:40;;;;;;;;;;;20.40;82.90;;;;;;5136176;27;19969;-57
2023/03/27 09:42:15;;;;;;;;;;;20.50;82.80;;;;;;5133955;27;19972;-58
2023/03/27 09:44:41;;;;;;;;;;;20.50;82.50;;;;;;5133479;27;19919;-57
2023/03/27 09:47:13;;;;;;;;;;;20.60;82.70;;;;;;5133911;27;19912;-59
2023/03/27 09:49:43;;;;;;;;;;;20.60;82.50;;;;;;5135103;27;20002;-58
2023/03/27 09:52:23;;;;;;;;;;;20.60;82.50;;;;;;5136986;27;19912;-58
2023/03/27 09:54:50;;;;;;;;;;;20.60;82.30;;;;;;5149928;27;20390;-53
2023/03/27 09:57:16;;;;;;;;;;;20.60;82.50;;;;;;5136501;27;19923;-58
2023/03/27 09:59:55;;;;;;;;;;;20.60;83.00;;;;;;5135667;27;19915;-58
2023/03/27 10:02:22;;;;;;;;;;;20.60;82.60;;;;;;5136427;27;19911;-57
2023/03/27 10:04:57;;;;;;;;;;;20.60;82.70;;;;;;5133836;27;19956;-56
2023/03/27 10:07:24;;;;;;;;;;;20.60;82.70;;;;;;5120787;27;19912;-56
2023/03/27 10:10:05;;;;;;;;;;;20.50;82.80;;;;;;5131464;27;19911;-59
2023/03/27 10:12:31;;;;;;;;;;;20.50;82.80;;;;;;5135165;27;20002;-56
2023/03/27 10:14:56;;;;;;;;;;;20.50;82.80;;;;;;5116869;27;20322;-57
2023/03/27 10:17:24;;;;;;;;;;;20.50;83.00;;;;;;5135216;27;19919;-55
2023/03/27 10:19:55;;;;;;;;;;;20.50;83.00;;;;;;5133930;27;20289;-55
2023/03/27 10:22:25;;;;;;;;;;;20.50;83.60;;;;;;5136144;27;19915;-55
2023/03/27 10:24:51;;;;;;;;;;;20.50;83.20;;;;;;5132719;27;19908;-56
2023/03/27 10:27:23;;;;;;;;;;;20.50;83.20;;;;;;5118446;27;19919;-55
2023/03/27 10:29:49;;;;;;;;;;;20.50;83.20;;;;;;5134656;27;19908;-57
2023/03/27 10:32:14;;;;;;;;;;;20.50;83.00;;;;;;5135161;27;19972;-59
2023/03/27 10:34:50;;;;;;;;;;;20.60;83.20;;;;;;5117107;27;20430;-59
2023/03/27 10:37:25;;;;;;;;;;;20.60;83.20;;;;;;5115870;27;21569;-54
2023/03/27 10:39:51;;;;;;;;;;;20.60;83.20;;;;;;5135349;27;19973;-58
2023/03/27 10:42:18;;;;;;;;;;;20.60;83.00;;;;;;5134646;27;19920;-54
2023/03/27 10:44:45;;;;;;;;;;;20.60;82.90;;;;;;5132359;27;19911;-57
2023/03/27 10:47:19;;;;;;;;;;;20.70;82.90;;;;;;5115077;27;19920;-58
2023/03/27 10:49:53;;;;;;;;;;;20.70;82.80;;;;;;5133634;27;19976;-53
2023/03/27 10:52:18;;;;;;;;;;;20.70;82.90;;;;;;5116817;27;19920;-58
2023/03/27 10:54:50;;;;;;;;;;;20.80;82.70;;;;;;5123159;27;19911;-58
2023/03/27 10:57:21;;;;;;;;;;;20.80;82.50;;;;;;5124672;27;20290;-56
2023/03/27 10:59:52;;;;;;;;;;;20.90;82.40;;;;;;5133029;27;19916;-57
2023/03/27 11:02:21;;;;;;;;;;;20.90;82.50;;;;;;5135549;27;19907;-52
2023/03/27 11:04:50;;;;;;;;;;;20.90;82.30;;;;;;5135405;27;19914;-52
2023/03/27 11:07:27;;;;;;;;;;;20.90;82.20;;;;;;5129432;27;19914;-54
2023/03/27 11:09:59;;;;;;;;;;;20.90;81.90;;;;;;5128219;27;19958;-53
2023/03/27 11:12:26;;;;;;;;;;;20.90;80.70;;;;;;5135755;27;19914;-50
2023/03/27 11:15:00;;;;;;;;;;;20.90;81.50;;;;;;5132580;27;19908;-49
2023/03/27 11:17:31;;;;;;;;;;;20.90;81.80;;;;;;5116727;27;19959;-50
2023/03/27 11:20:05;;;;;;;;;;;20.90;81.80;;;;;;5132689;27;19916;-53
2023/03/27 11:22:41;;;;;;;;;;;20.80;81.90;;;;;;5133171;27;20354;-54
2023/03/27 11:25:12;;;;;;;;;;;20.80;82.00;;;;;;5121564;27;19918;-51
2023/03/27 11:27:40;;;;;;;;;;;20.80;82.10;;;;;;5132877;27;19907;-50
2023/03/27 11:30:32;;;;;;;;;;;20.80;82.10;;;;;;5115948;27;19911;-52
2023/03/27 11:33:03;;;;;;;;;;;20.80;82.20;;;;;;5102503;27;19911;-51
2023/03/27 11:35:33;;;;;;;;;;;20.80;82.20;;;;;;5131770;27;20025;-54
2023/03/27 11:38:01;;;;;;;;;;;20.80;82.10;;;;;;5129447;27;19912;-54
2023/03/27 11:40:44;;;;;;;;;;;20.90;81.70;;;;;;5134809;27;19911;-52
2023/03/27 11:43:11;;;;;;;;;;;21.00;81.80;;;;;;5132968;28;19951;-54
2023/03/27 11:45:41;;;;;;;;;;;21.20;81.40;;;;;;5134652;28;19911;-59
2023/03/27 11:48:06;;;;;;;;;;;21.20;81.30;;;;;;5131995;28;19911;-56
2023/03/27 11:50:46;;;;;;;;;;;21.30;81.20;;;;;;5135304;28;19930;-56
2023/03/27 11:53:28;;;;;;;;;;;21.30;81.10;;;;;;5132627;28;20281;-58
2023/03/27 11:56:09;;;;;;;;;;;21.20;81.30;;;;;;5143688;27;19915;-55
2023/03/27 11:58:37;;;;;;;;;;;21.20;81.40;;;;;;5134079;28;19919;-60
2023/03/27 12:01:06;;;;;;;;;;;21.20;81.70;;;;;;5133510;28;19919;-61
2023/03/27 12:04:02;;;;;;;;;;;21.10;81.80;;;;;;5120731;28;19918;-59
2023/03/27 12:06:39;;;;;;;;;;;21.00;81.80;;;;;;5131692;28;19918;-59
2023/03/27 12:09:19;;;;;;;;;;;20.90;82.20;;;;;;5133090;28;20006;-58
2023/03/27 12:11:47;;;;;;;;;;;20.90;82.50;;;;;;5133411;28;19918;-61
2023/03/27 12:14:22;;;;;;;;;;;20.90;82.60;;;;;;5134508;28;19911;-56
2023/03/27 12:16:59;;;;;;;;;;;20.90;82.50;;;;;;5115268;28;19916;-57
2023/03/27 12:19:44;;;;;;;;;;;20.90;82.50;;;;;;5131940;28;19923;-58
2023/03/27 12:22:19;;;;;;;;;;;20.90;82.50;;;;;;5133645;28;19912;-59
2023/03/27 12:25:03;;;;;;;;;;;21.10;82.40;;;;;;5132438;28;19915;-55
2023/03/27 12:27:43;;;;;;;;;;;21.20;82.00;;;;;;5129618;28;19920;-59
2023/03/27 12:30:30;;;;;;;;;;;21.30;81.90;;;;;;5112744;28;19934;-58
2023/03/27 12:33:15;;;;;;;;;;;21.30;81.70;;;;;;5130844;28;20389;-57
2023/03/27 12:35:43;;;;;;;;;;;21.40;81.60;;;;;;5131800;28;19916;-56
2023/03/27 12:38:16;;;;;;;;;;;21.30;81.50;;;;;;5116283;28;20019;-59
2023/03/27 12:40:59;;;;;;;;;;;21.30;81.50;;;;;;5132068;28;20017;-55
2023/03/27 12:43:27;;;;;;;;;;;21.30;81.80;;;;;;5137959;27;19919;-60
2023/03/27 12:46:10;;;;;;;;;;;21.30;81.80;;;;;;5136548;27;19911;-61
2023/03/27 12:48:54;;;;;;;;;;;21.20;81.70;;;;;;5136983;27;20372;-57
2023/03/27 12:51:34;;;;;;;;;;;21.20;81.80;;;;;;5136601;27;20418;-57
2023/03/27 12:54:11;;;;;;;;;;;21.10;82.00;;;;;;5135870;27;19963;-55
2023/03/27 12:56:37;;;;;;;;;;;21.10;82.30;;;;;;5117824;28;19919;-54
2023/03/27 12:59:13;;;;;;;;;;;21.10;82.20;;;;;;5129350;27;19915;-54
2023/03/27 13:01:50;;;;;;;;;;;21.10;82.30;;;;;;5134448;27;19964;-51
2023/03/27 13:04:18;;;;;;;;;;;21.10;82.30;;;;;;5135879;27;19911;-54
2023/03/27 13:06:54;;;;;;;;;;;21.20;82.40;;;;;;5121832;27;20282;-58
2023/03/27 13:09:20;;;;;;;;;;;21.20;82.40;;;;;;5119430;27;19908;-56
2023/03/27 13:12:21;;;;;;;;;;;21.20;82.20;;;;;;5118639;27;19972;-56
2023/03/27 13:15:00;;;;;;;;;;;21.20;82.30;;;;;;5073934;28;19912;-56
2023/03/27 13:17:27;;;;;;;;;;;21.20;82.60;;;;;;5129128;27;19960;-56
2023/03/27 13:20:08;;;;;;;;;;;21.10;82.40;;;;;;5137742;27;19912;-55
2023/03/27 13:22:38;;;;;;;;;;;21.10;82.50;;;;;;5135990;27;20002;-59
2023/03/27 13:25:11;;;;;;;;;;;21.00;82.70;;;;;;5137427;27;19960;-55
2023/03/27 13:27:47;;;;;;;;;;;21.00;82.90;;;;;;5136512;27;19911;-54
2023/03/27 13:30:32;;;;;;;;;;;21.00;83.00;;;;;;5121713;27;20407;-59
2023/03/27 13:33:08;;;;;;;;;;;21.00;82.80;;;;;;5135824;27;19911;-56
2023/03/27 13:35:40;;;;;;;;;;;21.00;82.80;;;;;;5137128;27;19907;-58
2023/03/27 13:38:09;;;;;;;;;;;21.00;82.70;;;;;;5134737;27;19950;-57
2023/03/27 13:40:39;;;;;;;;;;;21.10;82.60;;;;;;5136321;27;21416;-55
2023/03/27 13:43:05;;;;;;;;;;;21.10;82.40;;;;;;5134058;27;20006;-57
2023/03/27 13:45:51;;;;;;;;;;;21.20;82.60;;;;;;5118059;27;19961;-59
2023/03/27 13:48:35;;;;;;;;;;;21.20;82.40;;;;;;5133026;27;20301;-58
2023/03/27 13:51:32;;;;;;;;;;;21.30;82.20;;;;;;5135979;27;19969;-57
2023/03/27 13:54:01;;;;;;;;;;;21.30;82.10;;;;;;5089486;27;19911;-60
2023/03/27 13:56:38;;;;;;;;;;;21.30;82.40;;;;;;5145567;27;20313;-60
2023/03/27 13:59:18;;;;;;;;;;;21.40;82.20;;;;;;5143531;27;19915;-58
2023/03/27 14:01:44;;;;;;;;;;;21.40;82.30;;;;;;5134595;27;19933;-59
2023/03/27 14:04:24;;;;;;;;;;;21.40;82.10;;;;;;5119637;27;19918;-62
2023/03/27 14:07:16;;;;;;;;;;;21.40;82.10;;;;;;5135405;27;20369;-62
2023/03/27 14:09:58;;;;;;;;;;;21.30;82.30;;;;;;5130192;27;20580;-59
2023/03/27 14:12:26;;;;;;;;;;;21.30;82.10;;;;;;5134452;27;20051;-58
2023/03/27 14:14:57;;;;;;;;;;;21.40;82.20;;;;;;5137891;27;20060;-61
2023/03/27 14:17:23;;;;;;;;;;;21.30;82.00;;;;;;5138699;27;20343;-61
2023/03/27 14:19:54;;;;;;;;;;;21.40;82.20;;;;;;5136434;27;19918;-63
2023/03/27 14:22:25;;;;;;;;;;;21.30;82.20;;;;;;5133021;27;19934;-62
2023/03/27 14:24:56;;;;;;;;;;;21.40;82.10;;;;;;5135262;27;19916;-59
2023/03/27 14:27:22;;;;;;;;;;;21.30;82.30;;;;;;5134732;27;20021;-59
2023/03/27 14:30:06;;;;;;;;;;;21.40;82.30;;;;;;5134063;27;19915;-61
2023/03/27 14:32:32;;;;;;;;;;;21.40;82.10;;;;;;5132944;27;19912;-61